Time;durP1;ratioP1;P1;durP2;ratioP2;P2;SDS_P1;SDS_P2;PMS_P1;PMS_P2;Temp;Humidity;BMP_temperature;BMP_pressure;BME280_temperature;BME280_humidity;BME280_pressure;Samples;Min_cycle;Max_cycle;Signal;HPM_P1;HPM_P2
2022/07/21 00:01:03;;;;;;;;;;;;;;;16.28;57.13;100738.88;5038409;28;2551;-54
2022/07/21 00:03:28;;;;;;;;;;;;;;;16.24;56.72;100740.53;5038469;28;1279;-56
2022/07/21 00:05:54;;;;;;;;;;;;;;;16.20;56.69;100726.53;5038468;28;1010;-57
2022/07/21 00:08:19;;;;;;;;;;;;;;;16.16;56.62;100725.44;5038140;28;1223;-56
2022/07/21 00:10:45;;;;;;;;;;;;;;;16.11;56.61;100719.13;5040373;28;1006;-57
2022/07/21 00:13:10;;;;;;;;;;;;;;;17.29;56.82;100721.78;5040724;28;1164;-55
2022/07/21 00:15:35;;;;;;;;;;;;;;;16.93;57.67;100725.47;5038245;28;1026;-57
2022/07/21 00:18:01;;;;;;;;;;;;;;;16.64;57.70;100716.94;5038206;28;1057;-55
2022/07/21 00:20:30;;;;;;;;;;;;;;;16.53;57.79;100716.13;5041881;28;1977;-58
2022/07/21 00:22:55;;;;;;;;;;;;;;;16.45;57.63;100710.34;5038597;28;1148;-57
2022/07/21 00:25:21;;;;;;;;;;;;;;;16.39;57.55;100709.53;5038096;28;1045;-58
2022/07/21 00:27:46;;;;;;;;;;;;;;;16.36;57.29;100705.41;5037783;28;1168;-55
2022/07/21 00:30:12;;;;;;;;;;;;;;;16.34;57.22;100704.88;5037983;28;1044;-55
2022/07/21 00:32:37;;;;;;;;;;;;;;;16.30;57.20;100701.03;5038973;28;2524;-54
2022/07/21 00:35:03;;;;;;;;;;;;;;;16.28;56.78;100697.72;5037723;28;1026;-51
2022/07/21 00:37:29;;;;;;;;;;;;;;;16.20;57.05;100695.50;5044257;28;1026;-57
2022/07/21 00:39:54;;;;;;;;;;;;;;;16.18;56.99;100692.25;5040078;28;1983;-56
2022/07/21 00:42:21;;;;;;;;;;;;;;;16.17;56.88;100694.16;5037562;28;1120;-56
2022/07/21 00:44:46;;;;;;;;;;;;;;;16.52;57.12;100692.53;5039623;28;1124;-56
2022/07/21 00:47:12;;;;;;;;;;;;;;;17.33;56.95;100687.16;5039176;28;1080;-57
2022/07/21 00:49:37;;;;;;;;;;;;;;;16.76;57.91;100687.28;5037318;28;1109;-57
2022/07/21 00:52:02;;;;;;;;;;;;;;;16.60;57.79;100683.72;5037556;28;1171;-56
2022/07/21 00:54:28;;;;;;;;;;;;;;;16.50;57.63;100686.47;5037428;28;1063;-56
2022/07/21 00:56:53;;;;;;;;;;;;;;;16.45;57.25;100688.41;5019370;28;1002;-54
2022/07/21 00:59:19;;;;;;;;;;;;;;;16.38;57.15;100674.94;5019820;28;1978;-57
2022/07/21 01:01:44;;;;;;;;;;;;;;;16.33;57.18;100678.53;5037335;28;2552;-56
2022/07/21 01:04:10;;;;;;;;;;;;;;;16.33;56.97;100677.72;5037076;28;1033;-57
2022/07/21 01:06:35;;;;;;;;;;;;;;;16.24;57.07;100671.94;5037340;28;1128;-56
2022/07/21 01:09:01;;;;;;;;;;;;;;;16.21;56.97;100669.75;5036995;28;1192;-56
2022/07/21 01:11:26;;;;;;;;;;;;;;;16.20;56.95;100662.59;5019353;28;1161;-56
2022/07/21 01:13:51;;;;;;;;;;;;;;;17.07;56.98;100664.47;5019218;28;1072;-57
2022/07/21 01:16:17;;;;;;;;;;;;;;;17.06;57.30;100663.63;5037407;28;1197;-55
2022/07/21 01:18:42;;;;;;;;;;;;;;;16.71;57.83;100672.75;5038063;28;1893;-56
2022/07/21 01:21:22;;;;;;;;;;;;;;;16.58;57.69;100666.72;5037338;28;1029;-57
2022/07/21 01:23:47;;;;;;;;;;;;;;;16.42;57.46;100665.91;5013757;28;1145;-56
2022/07/21 01:26:13;;;;;;;;;;;;;;;16.41;57.45;100661.50;5019241;28;1388;-58
2022/07/21 01:28:38;;;;;;;;;;;;;;;16.36;57.08;100666.19;5036993;28;1064;-54
2022/07/21 01:31:03;;;;;;;;;;;;;;;16.28;57.11;100658.50;5035815;28;2419;-55
2022/07/21 01:33:29;;;;;;;;;;;;;;;16.17;57.17;100657.66;5037126;28;1057;-49
2022/07/21 01:35:54;;;;;;;;;;;;;;;16.17;56.85;100652.19;5039981;28;1038;-57
2022/07/21 01:43:47;;;;;;;;;;;;;;;17.31;57.03;100652.84;5036983;28;1025;-52
2022/07/21 01:46:13;;;;;;;;;;;;;;;16.74;57.58;100652.97;5036371;28;1203;-58
2022/07/21 01:48:44;;;;;;;;;;;;;;;16.56;57.68;100646.13;5036397;28;1010;-58
2022/07/21 01:51:10;;;;;;;;;;;;;;;16.40;57.54;100654.38;5036556;28;1017;-58
2022/07/21 01:53:35;;;;;;;;;;;;;;;16.37;57.38;100646.69;5036497;28;1037;-58
2022/07/21 01:56:01;;;;;;;;;;;;;;;16.37;57.12;100649.44;5036573;28;1034;-58
2022/07/21 01:58:26;;;;;;;;;;;;;;;16.29;57.03;100638.19;5036166;28;884;-58
2022/07/21 02:00:51;;;;;;;;;;;;;;;16.22;57.11;100647.50;5036414;28;1910;-56
2022/07/21 02:03:17;;;;;;;;;;;;;;;16.21;56.90;100653.28;5036294;28;2775;-55
2022/07/21 02:05:42;;;;;;;;;;;;;;;16.29;57.25;100639.00;5036139;28;1013;-55
2022/07/21 02:08:08;;;;;;;;;;;;;;;17.58;56.76;100633.16;5037275;28;1176;-55
2022/07/21 02:10:35;;;;;;;;;;;;;;;16.92;57.71;100637.84;5035519;28;879;-50
2022/07/21 02:13:02;;;;;;;;;;;;;;;16.65;57.88;100633.50;5036260;28;1518;-52
2022/07/21 02:15:28;;;;;;;;;;;;;;;16.50;57.67;100641.75;5036405;28;977;-55
2022/07/21 02:17:53;;;;;;;;;;;;;;;16.43;57.65;100637.34;5036265;28;1050;-54
2022/07/21 02:20:19;;;;;;;;;;;;;;;16.38;57.20;100637.38;5036205;28;1906;-55
2022/07/21 02:22:45;;;;;;;;;;;;;;;16.36;57.01;100641.50;5035739;28;858;-53
2022/07/21 02:25:11;;;;;;;;;;;;;;;16.28;56.93;100629.13;5029136;28;1041;-53
2022/07/21 02:27:36;;;;;;;;;;;;;;;16.22;56.98;100627.50;5036101;28;1057;-54
2022/07/21 02:30:02;;;;;;;;;;;;;;;16.20;56.93;100629.69;5035870;28;1112;-55
2022/07/21 02:32:28;;;;;;;;;;;;;;;16.54;57.28;100626.38;5038659;28;2362;-55
2022/07/21 02:34:53;;;;;;;;;;;;;;;17.37;57.11;100619.53;5042395;28;915;-53
2022/07/21 02:37:19;;;;;;;;;;;;;;;16.76;57.72;100615.88;5040795;28;1021;-55
2022/07/21 02:39:45;;;;;;;;;;;;;;;16.57;57.70;100609.34;5041420;28;1967;-55
2022/07/21 02:42:10;;;;;;;;;;;;;;;16.50;57.66;100601.41;5040702;28;1017;-49
2022/07/21 02:44:36;;;;;;;;;;;;;;;16.40;57.48;100606.91;5040699;28;1172;-52
2022/07/21 02:47:01;;;;;;;;;;;;;;;16.35;57.33;100599.47;5039673;28;922;-54
2022/07/21 02:49:27;;;;;;;;;;;;;;;16.26;57.23;100609.38;5039357;28;1041;-52
2022/07/21 02:51:52;;;;;;;;;;;;;;;16.21;57.27;100610.19;5039886;28;974;-55
2022/07/21 02:54:18;;;;;;;;;;;;;;;16.20;56.99;100608.56;5040012;28;1226;-55
2022/07/21 02:56:43;;;;;;;;;;;;;;;16.15;57.06;100605.00;5043288;28;1056;-54
2022/07/21 02:59:09;;;;;;;;;;;;;;;17.41;56.96;100598.63;5037042;28;1969;-55
2022/07/21 03:01:34;;;;;;;;;;;;;;;16.98;57.75;100612.00;5040385;28;2454;-55
2022/07/21 03:03:59;;;;;;;;;;;;;;;16.69;58.00;100612.63;5039506;28;1135;-55
2022/07/21 03:06:25;;;;;;;;;;;;;;;16.55;57.57;100606.88;5039214;28;1195;-56
2022/07/21 03:08:50;;;;;;;;;;;;;;;16.43;57.62;100607.16;5039541;28;1021;-55
2022/07/21 03:11:16;;;;;;;;;;;;;;;16.37;57.20;100619.25;5045107;28;889;-54
2022/07/21 03:13:41;;;;;;;;;;;;;;;16.34;57.08;100627.19;5039223;28;1254;-52
2022/07/21 03:16:07;;;;;;;;;;;;;;;16.28;56.98;100611.84;5039418;28;994;-56
2022/07/21 03:18:32;;;;;;;;;;;;;;;16.24;56.68;100619.81;5039068;28;1407;-60
2022/07/21 03:20:58;;;;;;;;;;;;;;;16.20;56.86;100602.25;5045162;28;1898;-58
2022/07/21 03:23:23;;;;;;;;;;;;;;;16.26;57.14;100628.59;5044346;28;1399;-58
2022/07/21 03:25:49;;;;;;;;;;;;;;;17.45;56.94;100629.13;5043538;28;1010;-55
2022/07/21 03:28:14;;;;;;;;;;;;;;;16.84;57.75;100617.22;5039816;28;1056;-57
2022/07/21 03:30:40;;;;;;;;;;;;;;;16.56;57.70;100622.25;5038811;28;1030;-58
2022/07/21 03:33:05;;;;;;;;;;;;;;;16.46;57.55;100624.19;5038839;28;2477;-59
2022/07/21 03:35:31;;;;;;;;;;;;;;;16.38;57.61;100618.16;5040336;28;843;-57
2022/07/21 03:37:57;;;;;;;;;;;;;;;16.36;57.13;100616.78;5039718;28;1191;-55
2022/07/21 03:40:24;;;;;;;;;;;;;;;16.24;57.35;100617.06;5038933;28;1985;-53
2022/07/21 03:42:50;;;;;;;;;;;;;;;16.26;56.79;100617.63;5038641;28;1006;-55
2022/07/21 03:45:16;;;;;;;;;;;;;;;16.20;56.98;100607.72;5038012;28;1013;-56
2022/07/21 03:47:41;;;;;;;;;;;;;;;16.23;57.01;100610.75;5040176;28;1010;-56
2022/07/21 03:50:07;;;;;;;;;;;;;;;17.47;56.70;100613.16;5041572;28;1076;-54
2022/07/21 03:52:33;;;;;;;;;;;;;;;16.91;58.10;100608.72;5038228;28;1413;-55
2022/07/21 03:55:14;;;;;;;;;;;;;;;16.63;58.04;100605.47;5038630;28;1136;-53
2022/07/21 03:57:49;;;;;;;;;;;;;;;16.52;57.67;100612.94;5038762;28;1073;-52
2022/07/21 04:00:16;;;;;;;;;;;;;;;16.52;57.86;100623.06;5037568;28;1969;-52
2022/07/21 04:02:45;;;;;;;;;;;;;;;16.53;57.78;100608.25;5038347;28;2591;-61
2022/07/21 04:05:10;;;;;;;;;;;;;;;16.49;57.67;100612.66;5038444;28;1220;-58
2022/07/21 04:07:36;;;;;;;;;;;;;;;16.53;57.58;100611.81;5044352;28;1043;-56
2022/07/21 04:10:02;;;;;;;;;;;;;;;16.53;57.61;100608.25;5036507;28;959;-58
2022/07/21 04:12:28;;;;;;;;;;;;;;;16.51;57.88;100610.44;5039600;28;967;-59
2022/07/21 04:14:53;;;;;;;;;;;;;;;16.50;57.83;100608.81;5021088;28;994;-59
2022/07/21 04:17:19;;;;;;;;;;;;;;;16.47;57.61;100612.94;5038171;28;1187;-59
2022/07/21 04:19:44;;;;;;;;;;;;;;;16.43;57.99;100604.41;5043302;28;1963;-58
2022/07/21 04:22:10;;;;;;;;;;;;;;;16.47;57.71;100607.44;5037957;28;1010;-59
2022/07/21 04:24:35;;;;;;;;;;;;;;;16.40;57.88;100613.22;5042177;28;1030;-59
2022/07/21 04:27:01;;;;;;;;;;;;;;;16.32;57.72;100611.00;5038375;28;950;-58
2022/07/21 04:29:28;;;;;;;;;;;;;;;16.29;57.76;100605.28;5037880;28;1208;-58
2022/07/21 04:31:54;;;;;;;;;;;;;;;16.27;57.85;100613.78;5038199;28;2624;-59
2022/07/21 04:34:19;;;;;;;;;;;;;;;16.28;57.51;100607.19;5037649;28;1171;-57
2022/07/21 04:36:45;;;;;;;;;;;;;;;16.19;57.80;100600.63;5037684;28;1155;-57
2022/07/21 04:39:10;;;;;;;;;;;;;;;16.18;57.72;100599.78;5019996;28;1914;-56
2022/07/21 04:41:35;;;;;;;;;;;;;;;16.14;57.73;100595.94;5037561;28;974;-55
2022/07/21 04:44:01;;;;;;;;;;;;;;;16.43;58.46;100593.44;5037901;28;1017;-57
2022/07/21 04:46:26;;;;;;;;;;;;;;;17.36;58.55;100593.16;5042069;28;1104;-57
2022/07/21 04:48:52;;;;;;;;;;;;;;;16.89;59.28;100594.47;5037780;28;1037;-57
2022/07/21 04:51:17;;;;;;;;;;;;;;;16.70;59.07;100600.50;5037249;28;1172;-58
2022/07/21 04:53:43;;;;;;;;;;;;;;;16.59;59.05;100598.91;5037423;28;1068;-57
2022/07/21 04:56:08;;;;;;;;;;;;;;;16.56;59.04;100593.97;5037348;28;1148;-57
2022/07/21 04:58:34;;;;;;;;;;;;;;;16.55;58.71;100604.13;5036809;28;1202;-58
2022/07/21 05:00:59;;;;;;;;;;;;;;;16.52;58.60;100590.13;5037424;28;2444;-57
2022/07/21 05:03:25;;;;;;;;;;;;;;;16.49;58.37;100587.94;5037121;28;1089;-58
2022/07/21 05:05:50;;;;;;;;;;;;;;;16.51;58.26;100589.31;5037651;28;966;-55
2022/07/21 05:08:17;;;;;;;;;;;;;;;16.46;58.30;100589.31;5037622;28;1023;-57
2022/07/21 05:10:42;;;;;;;;;;;;;;;16.40;58.16;100596.75;5037003;28;1073;-56
2022/07/21 05:13:08;;;;;;;;;;;;;;;16.40;58.00;100607.72;5037488;28;1018;-54
2022/07/21 05:15:33;;;;;;;;;;;;;;;16.36;58.08;100595.66;5040802;28;854;-58
2022/07/21 05:17:59;;;;;;;;;;;;;;;16.34;58.24;100606.09;5036980;28;1132;-55
2022/07/21 05:20:24;;;;;;;;;;;;;;;16.32;58.10;100605.53;5041372;28;1982;-56
2022/07/21 05:22:50;;;;;;;;;;;;;;;16.31;58.11;100603.06;5036862;28;1068;-59
2022/07/21 05:25:15;;;;;;;;;;;;;;;16.29;58.18;100599.78;5037162;28;978;-56
2022/07/21 05:27:41;;;;;;;;;;;;;;;16.29;58.00;100599.78;5036820;28;1401;-56
2022/07/21 05:30:06;;;;;;;;;;;;;;;16.25;58.01;100605.81;5033308;28;1351;-56
2022/07/21 05:32:32;;;;;;;;;;;;;;;16.20;57.89;100603.09;5036683;28;2430;-57
2022/07/21 05:34:57;;;;;;;;;;;;;;;16.24;57.92;100608.81;5037241;28;1226;-56
2022/07/21 05:37:23;;;;;;;;;;;;;;;16.21;57.92;100614.88;5037118;28;1077;-55
2022/07/21 05:39:48;;;;;;;;;;;;;;;16.18;57.99;100623.66;5036685;28;1989;-56
2022/07/21 05:42:14;;;;;;;;;;;;;;;16.20;58.07;100621.44;5036805;28;1065;-56
2022/07/21 05:44:39;;;;;;;;;;;;;;;16.70;58.63;100627.16;5036451;28;1006;-59
2022/07/21 05:47:04;;;;;;;;;;;;;;;17.21;58.79;100624.28;5036051;28;1163;-57
2022/07/21 05:49:30;;;;;;;;;;;;;;;16.79;59.58;100627.41;5038553;28;1380;-59
2022/07/21 05:51:56;;;;;;;;;;;;;;;18.05;56.50;100633.72;5035189;28;1084;-62
2022/07/21 05:54:21;;;;;;;;;;;;;;;17.57;56.56;100626.00;5033099;28;1272;-59
2022/07/21 05:56:46;;;;;;;;;;;;;;;18.00;56.88;100626.31;5036681;28;974;-59
2022/07/21 05:59:12;;;;;;;;;;;;;;;17.08;59.25;100636.69;5036697;28;1982;-59
2022/07/21 06:01:37;;;;;;;;;;;;;;;16.14;60.46;100620.63;5034450;28;1081;-58
2022/07/21 06:04:03;;;;;;;;;;;;;;;16.79;56.48;100639.22;5036447;28;1006;-57
2022/07/21 06:06:28;;;;;;;;;;;;;;;16.94;54.61;100630.13;5036380;28;998;-61
2022/07/21 06:08:55;;;;;;;;;;;;;;;17.44;56.84;100625.53;5035378;28;1093;-58
2022/07/21 06:11:20;;;;;;;;;;;;;;;17.00;56.00;100620.78;5035702;28;1048;-59
2022/07/21 06:13:46;;;;;;;;;;;;;;;16.96;54.73;100619.72;5036178;28;1088;-60
2022/07/21 06:16:11;;;;;;;;;;;;;;;16.89;53.67;100625.50;5035694;28;998;-59
2022/07/21 06:18:36;;;;;;;;;;;;;;;16.92;53.09;100632.34;5036150;28;1088;-58
2022/07/21 06:21:02;;;;;;;;;;;;;;;16.85;52.91;100634.53;5037783;28;1906;-59
2022/07/21 06:23:27;;;;;;;;;;;;;;;16.82;52.58;100640.59;5035571;28;1006;-58
2022/07/21 06:25:53;;;;;;;;;;;;;;;16.84;52.19;100625.47;5037058;28;1144;-59
2022/07/21 06:28:19;;;;;;;;;;;;;;;16.89;51.75;100624.69;5036393;28;1093;-59
2022/07/21 06:30:44;;;;;;;;;;;;;;;16.84;51.51;100622.72;5035759;28;1187;-59
2022/07/21 06:33:09;;;;;;;;;;;;;;;16.88;51.37;100623.00;5036193;28;1033;-60
2022/07/21 06:35:35;;;;;;;;;;;;;;;16.85;51.00;100634.53;5036328;28;1010;-59
2022/07/21 06:38:00;;;;;;;;;;;;;;;16.90;50.86;100631.78;5035913;28;973;-58
2022/07/21 06:40:26;;;;;;;;;;;;;;;16.88;51.00;100631.22;5035756;28;1965;-59
2022/07/21 06:42:51;;;;;;;;;;;;;;;16.84;51.01;100619.97;5017466;28;1129;-59
2022/07/21 06:45:17;;;;;;;;;;;;;;;16.80;51.30;100627.13;5035518;28;1006;-59
2022/07/21 06:47:42;;;;;;;;;;;;;;;16.79;51.30;100635.63;5033866;28;1141;-59
2022/07/21 06:50:08;;;;;;;;;;;;;;;16.81;51.03;100638.94;5036096;28;1041;-58
2022/07/21 06:52:34;;;;;;;;;;;;;;;16.83;51.07;100637.56;5035734;28;1206;-59
2022/07/21 06:54:59;;;;;;;;;;;;;;;16.86;51.20;100631.53;5039235;28;968;-59
2022/07/21 06:57:24;;;;;;;;;;;;;;;16.98;50.65;100636.72;5036000;28;986;-59
2022/07/21 06:59:50;;;;;;;;;;;;;;;18.21;52.20;100640.72;5031217;28;2059;-59
2022/07/21 07:02:15;;;;;;;;;;;;;;;17.60;52.34;100641.97;5035111;28;1021;-59
2022/07/21 07:04:41;;;;;;;;;;;;;;;17.45;51.73;100624.44;5035887;28;1089;-60
2022/07/21 07:07:06;;;;;;;;;;;;;;;17.40;50.83;100638.22;5035688;28;994;-59
2022/07/21 07:09:32;;;;;;;;;;;;;;;17.41;50.40;100630.78;5037918;28;1092;-59
2022/07/21 07:12:03;;;;;;;;;;;;;;;18.10;51.50;100629.00;5035390;28;1076;-59
2022/07/21 07:14:29;;;;;;;;;;;;;;;15.11;59.49;100635.97;5035180;28;1225;-60
2022/07/21 07:16:54;;;;;;;;;;;;;;;17.81;55.78;100630.81;5035569;28;1013;-58
2022/07/21 07:19:20;;;;;;;;;;;;;;;18.09;56.06;100621.84;5038035;28;1913;-61
2022/07/21 07:21:46;;;;;;;;;;;;;;;15.77;62.06;100627.16;5039062;28;998;-58
2022/07/21 07:24:11;;;;;;;;;;;;;;;18.71;57.00;100623.22;5036316;28;1310;-58
2022/07/21 07:26:36;;;;;;;;;;;;;;;15.93;62.54;100621.72;5037888;28;1010;-59
2022/07/21 07:29:02;;;;;;;;;;;;;;;16.83;60.18;100628.50;5046205;28;986;-55
2022/07/21 07:31:27;;;;;;;;;;;;;;;18.61;57.25;100624.94;5040079;28;1148;-57
2022/07/21 07:33:56;;;;;;;;;;;;;;;15.14;64.90;100630.00;5039064;28;1064;-57
2022/07/21 07:36:22;;;;;;;;;;;;;;;16.97;56.11;100624.09;5037835;28;1156;-57
2022/07/21 07:38:48;;;;;;;;;;;;;;;17.16;53.95;100618.00;5038807;28;1053;-57
2022/07/21 07:41:13;;;;;;;;;;;;;;;17.18;52.58;100633.09;5039504;28;1980;-58
2022/07/21 07:43:39;;;;;;;;;;;;;;;17.26;51.77;100620.69;5044013;28;986;-58
2022/07/21 07:46:05;;;;;;;;;;;;;;;17.23;51.33;100635.00;5043865;28;1025;-58
2022/07/21 07:48:31;;;;;;;;;;;;;;;17.27;50.69;100636.88;5034487;28;1136;-60
2022/07/21 07:50:56;;;;;;;;;;;;;;;17.22;50.85;100633.34;5038926;28;986;-60
2022/07/21 07:53:22;;;;;;;;;;;;;;;17.22;50.47;100634.19;5038028;28;1179;-60
2022/07/21 07:55:47;;;;;;;;;;;;;;;17.30;50.07;100641.00;5023516;28;1006;-58
2022/07/21 07:58:13;;;;;;;;;;;;;;;17.23;50.00;100648.72;5038364;28;1093;-57
2022/07/21 08:00:39;;;;;;;;;;;;;;;17.24;49.76;100642.13;5042014;28;1971;-60
2022/07/21 08:03:05;;;;;;;;;;;;;;;17.27;49.93;100647.06;5039299;28;1002;-59
2022/07/21 08:05:30;;;;;;;;;;;;;;;17.49;53.23;100638.44;5038454;28;1033;-60
2022/07/21 08:07:56;;;;;;;;;;;;;;;16.14;59.09;100650.00;5038319;28;1085;-59
2022/07/21 08:10:21;;;;;;;;;;;;;;;18.76;55.37;100643.25;5037961;28;1037;-58
2022/07/21 08:12:46;;;;;;;;;;;;;;;15.79;62.17;100641.44;5037725;28;854;-59
2022/07/21 08:15:12;;;;;;;;;;;;;;;17.51;59.46;100641.72;5038167;28;1096;-59
2022/07/21 08:17:38;;;;;;;;;;;;;;;18.89;56.29;100635.44;5038096;28;1173;-60
2022/07/21 08:20:04;;;;;;;;;;;;;;;14.98;65.38;100645.50;5040857;28;1980;-60
2022/07/21 08:22:30;;;;;;;;;;;;;;;16.95;56.12;100650.22;5037746;28;1121;-58
2022/07/21 08:24:55;;;;;;;;;;;;;;;17.21;53.83;100640.78;5039197;28;970;-58
2022/07/21 08:27:20;;;;;;;;;;;;;;;17.33;52.57;100640.44;5038102;28;1144;-57
2022/07/21 08:29:46;;;;;;;;;;;;;;;17.34;51.75;100646.78;5037867;28;1049;-57
2022/07/21 08:32:11;;;;;;;;;;;;;;;17.42;50.95;100655.25;5036372;28;1065;-57
2022/07/21 08:34:37;;;;;;;;;;;;;;;17.32;50.75;100649.81;5037762;28;1012;-58
2022/07/21 08:37:02;;;;;;;;;;;;;;;17.35;50.27;100656.63;5041746;28;1208;-57
2022/07/21 08:39:28;;;;;;;;;;;;;;;17.39;49.97;100655.81;5037241;28;1973;-57
2022/07/21 08:41:53;;;;;;;;;;;;;;;17.35;49.74;100653.88;5033254;28;1219;-58
2022/07/21 08:44:22;;;;;;;;;;;;;;;17.32;49.48;100657.19;5036974;28;1014;-58
2022/07/21 08:46:49;;;;;;;;;;;;;;;17.36;49.40;100659.13;5037531;28;1120;-58
2022/07/21 08:49:14;;;;;;;;;;;;;;;17.32;49.27;100663.53;5043760;28;1145;-58
2022/07/21 08:51:40;;;;;;;;;;;;;;;17.32;49.31;100666.28;5019762;28;1026;-57
2022/07/21 08:54:05;;;;;;;;;;;;;;;17.34;49.04;100666.00;5022799;28;1196;-58
2022/07/21 08:56:30;;;;;;;;;;;;;;;17.28;49.25;100667.94;5038445;28;1053;-56
2022/07/21 08:58:56;;;;;;;;;;;;;;;17.31;48.95;100666.56;5037086;28;1045;-57
2022/07/21 09:01:24;;;;;;;;;;;;;;;17.29;48.96;100672.31;5034492;28;1037;-58
2022/07/21 09:03:51;;;;;;;;;;;;;;;17.29;48.89;100664.06;5037024;28;989;-57
2022/07/21 09:06:16;;;;;;;;;;;;;;;18.50;50.65;100674.91;5034715;28;1120;-58
2022/07/21 09:08:46;;;;;;;;;;;;;;;15.10;59.14;100667.22;5041921;28;1002;-57
2022/07/21 09:11:12;;;;;;;;;;;;;;;18.43;54.10;100661.47;5037143;28;978;-57
2022/07/21 09:13:39;;;;;;;;;;;;;;;16.38;60.12;100659.31;5035814;28;1148;-58
2022/07/21 09:16:04;;;;;;;;;;;;;;;16.37;57.76;100667.84;5038434;28;1286;-57
2022/07/21 09:18:30;;;;;;;;;;;;;;;18.61;55.45;100657.19;5037206;28;1025;-55
2022/07/21 09:20:55;;;;;;;;;;;;;;;14.89;63.94;100664.38;5039739;28;1914;-54
2022/07/21 09:23:21;;;;;;;;;;;;;;;18.16;57.64;100661.97;5036969;28;1013;-58
2022/07/21 09:25:50;;;;;;;;;;;;;;;16.95;60.50;100662.00;5038401;28;1161;-58
2022/07/21 09:28:17;;;;;;;;;;;;;;;16.54;61.54;100662.06;5036446;28;1005;-60
2022/07/21 09:30:49;;;;;;;;;;;;;;;19.15;56.41;100663.50;5037024;28;1172;-58
2022/07/21 09:33:31;;;;;;;;;;;;;;;15.32;64.16;100658.81;5036600;28;1014;-63
2022/07/21 09:36:04;;;;;;;;;;;;;;;16.91;56.90;100664.50;5045012;28;1036;-59
2022/07/21 09:38:30;;;;;;;;;;;;;;;17.31;54.05;100663.81;5019656;28;920;-60
2022/07/21 09:41:03;;;;;;;;;;;;;;;17.37;52.48;100657.19;5036521;28;1910;-60
2022/07/21 09:43:33;;;;;;;;;;;;;;;17.37;51.92;100669.00;5035772;28;1017;-57
2022/07/21 09:46:05;;;;;;;;;;;;;;;17.38;51.21;100654.16;5036549;28;978;-58
2022/07/21 09:48:37;;;;;;;;;;;;;;;17.36;50.96;100667.38;5036925;28;994;-59
2022/07/21 09:51:21;;;;;;;;;;;;;;;17.43;50.38;100661.53;5034415;28;1029;-59
2022/07/21 09:53:50;;;;;;;;;;;;;;;17.46;49.90;100650.00;5032305;28;1116;-57
2022/07/21 09:56:16;;;;;;;;;;;;;;;17.39;49.92;100661.31;5036713;28;998;-59
2022/07/21 09:58:42;;;;;;;;;;;;;;;17.44;49.48;100664.00;5036475;28;1171;-57
2022/07/21 10:01:07;;;;;;;;;;;;;;;17.41;49.84;100658.28;5036285;28;1983;-58
2022/07/21 10:03:33;;;;;;;;;;;;;;;17.45;49.34;100662.09;5036363;28;1152;-57
2022/07/21 10:05:58;;;;;;;;;;;;;;;17.47;49.08;100651.63;5036101;28;974;-58
2022/07/21 10:08:23;;;;;;;;;;;;;;;17.41;49.43;100666.53;5036249;28;1218;-58
2022/07/21 10:10:49;;;;;;;;;;;;;;;17.44;48.86;100674.19;5019128;28;975;-59
2022/07/21 10:13:14;;;;;;;;;;;;;;;17.40;48.75;100668.47;5018280;28;1049;-58
2022/07/21 10:15:40;;;;;;;;;;;;;;;17.47;48.58;100668.13;5036141;28;1093;-59
2022/07/21 10:18:05;;;;;;;;;;;;;;;17.41;48.54;100667.31;5035936;28;1010;-59
2022/07/21 10:20:32;;;;;;;;;;;;;;;17.35;48.74;100673.97;5039653;28;1910;-59
2022/07/21 10:23:02;;;;;;;;;;;;;;;17.66;52.41;100673.81;5018432;28;1156;-58
2022/07/21 10:25:27;;;;;;;;;;;;;;;16.29;57.33;100680.16;5034298;28;1479;-58
2022/07/21 10:28:23;;;;;;;;;;;;;;;18.93;53.65;100686.91;5018546;28;1104;-60
2022/07/21 10:30:50;;;;;;;;;;;;;;;15.42;62.30;100689.00;5030313;28;1085;-58
2022/07/21 10:33:17;;;;;;;;;;;;;;;16.93;57.66;100699.94;5035060;28;950;-57
2022/07/21 10:35:46;;;;;;;;;;;;;;;17.08;59.63;100680.66;5034760;28;974;-59
2022/07/21 10:38:41;;;;;;;;;;;;;;;16.06;60.02;100684.25;5035449;28;998;-58
2022/07/21 10:41:06;;;;;;;;;;;;;;;18.11;56.79;100693.91;5007660;28;1918;-60
2022/07/21 10:43:31;;;;;;;;;;;;;;;14.87;63.36;100689.28;5037491;28;1101;-58
2022/07/21 10:45:58;;;;;;;;;;;;;;;18.22;58.19;100699.38;5036591;28;1006;-57
2022/07/21 10:48:49;;;;;;;;;;;;;;;17.67;59.51;100682.88;5035942;28;1025;-58
2022/07/21 10:51:15;;;;;;;;;;;;;;;15.90;61.70;100686.16;5030267;28;1594;-58
2022/07/21 10:53:41;;;;;;;;;;;;;;;17.09;55.16;100678.72;5035804;28;1189;-62
2022/07/21 10:56:06;;;;;;;;;;;;;;;17.26;53.13;100683.88;5020276;28;970;-57
2022/07/21 10:58:32;;;;;;;;;;;;;;;17.33;51.86;100681.66;5039893;28;958;-59
2022/07/21 11:00:58;;;;;;;;;;;;;;;17.39;50.91;100680.53;5039242;28;1906;-60
2022/07/21 11:03:26;;;;;;;;;;;;;;;17.24;50.86;100678.66;5039408;28;888;-59
2022/07/21 11:06:10;;;;;;;;;;;;;;;17.30;50.49;100687.72;5039217;28;1144;-59
2022/07/21 11:08:36;;;;;;;;;;;;;;;17.88;51.94;100695.44;5041894;28;1454;-60
2022/07/21 11:11:18;;;;;;;;;;;;;;;15.44;60.21;100684.06;5039631;28;1236;-60
2022/07/21 11:14:01;;;;;;;;;;;;;;;18.06;57.38;100691.22;5037021;28;1256;-59
2022/07/21 11:17:03;;;;;;;;;;;;;;;17.60;59.38;100699.72;5042674;28;1279;-60
2022/07/21 11:19:28;;;;;;;;;;;;;;;16.54;62.47;100705.97;5040099;28;1914;-60
2022/07/21 11:21:53;;;;;;;;;;;;;;;19.10;57.09;100703.00;5041821;28;978;-59
2022/07/21 11:24:20;;;;;;;;;;;;;;;15.09;64.86;100693.75;5042124;28;1168;-59
2022/07/21 11:26:52;;;;;;;;;;;;;;;16.87;57.10;100701.84;5038846;28;962;-60
2022/07/21 11:29:18;;;;;;;;;;;;;;;17.30;53.57;100690.47;5043922;28;1281;-59
2022/07/21 11:31:46;;;;;;;;;;;;;;;17.23;52.43;100688.00;5047299;28;974;-61
2022/07/21 11:34:12;;;;;;;;;;;;;;;17.30;51.34;100695.16;5046750;28;1044;-61
2022/07/21 11:36:37;;;;;;;;;;;;;;;17.44;51.35;100708.00;5045750;28;1010;-59
2022/07/21 11:39:03;;;;;;;;;;;;;;;16.18;59.06;100719.66;5041141;28;1977;-58
2022/07/21 11:41:28;;;;;;;;;;;;;;;17.13;59.30;100717.47;5045088;28;970;-59
2022/07/21 11:43:54;;;;;;;;;;;;;;;19.13;56.84;100715.38;5041641;28;998;-59
2022/07/21 11:46:19;;;;;;;;;;;;;;;15.42;64.19;100718.31;5040103;28;1020;-59
2022/07/21 11:48:45;;;;;;;;;;;;;;;17.54;61.12;100717.31;5040262;28;1125;-58
2022/07/21 11:51:11;;;;;;;;;;;;;;;17.41;61.05;100729.75;5039442;28;1419;-57
2022/07/21 11:53:36;;;;;;;;;;;;;;;15.72;64.11;100726.66;5038391;28;1131;-60
2022/07/21 11:56:05;;;;;;;;;;;;;;;18.65;59.32;100718.84;5027183;28;1183;-59
2022/07/21 11:58:31;;;;;;;;;;;;;;;15.60;64.47;100731.56;5030636;28;1190;-59
2022/07/21 12:01:06;;;;;;;;;;;;;;;16.75;58.98;100717.78;5043527;28;1902;-58
2022/07/21 12:03:31;;;;;;;;;;;;;;;17.32;54.08;100721.25;5037728;28;942;-58
2022/07/21 12:05:57;;;;;;;;;;;;;;;17.32;52.79;100706.66;5041832;28;1052;-60
2022/07/21 12:08:22;;;;;;;;;;;;;;;17.40;51.77;100717.94;5043491;28;1172;-59
2022/07/21 12:10:48;;;;;;;;;;;;;;;17.38;50.94;100717.38;5040625;28;1018;-58
2022/07/21 12:13:13;;;;;;;;;;;;;;;17.34;50.57;100708.03;5041487;28;1148;-58
2022/07/21 12:15:41;;;;;;;;;;;;;;;17.29;50.33;100719.03;5039044;28;854;-60
2022/07/21 12:18:19;;;;;;;;;;;;;;;17.33;49.71;100714.63;5038762;28;1164;-60
2022/07/21 12:20:45;;;;;;;;;;;;;;;17.32;49.87;100725.91;5042007;28;1968;-61
2022/07/21 12:23:37;;;;;;;;;;;;;;;17.24;49.83;100708.09;5039695;28;1097;-61
2022/07/21 12:26:02;;;;;;;;;;;;;;;17.33;49.28;100719.31;5033308;28;1435;-59
2022/07/21 12:28:44;;;;;;;;;;;;;;;17.33;49.35;100722.88;5041472;28;1165;-59
2022/07/21 12:31:10;;;;;;;;;;;;;;;17.33;49.09;100720.13;5040495;28;1125;-57
2022/07/21 12:33:35;;;;;;;;;;;;;;;17.28;48.98;100720.16;5040194;28;970;-59
2022/07/21 12:36:04;;;;;;;;;;;;;;;18.06;50.90;100723.41;5040576;28;1013;-60
2022/07/21 12:38:39;;;;;;;;;;;;;;;14.93;59.58;100731.19;5039035;28;1057;-58
2022/07/21 12:41:05;;;;;;;;;;;;;;;18.24;55.59;100730.16;5017463;28;1906;-59
2022/07/21 12:43:30;;;;;;;;;;;;;;;17.65;58.17;100731.84;5046968;28;1121;-57
2022/07/21 12:45:57;;;;;;;;;;;;;;;15.53;62.33;100730.97;5043431;28;950;-58
2022/07/21 12:48:22;;;;;;;;;;;;;;;18.58;57.52;100723.84;5043497;28;1422;-60
2022/07/21 12:50:58;;;;;;;;;;;;;;;15.50;63.55;100723.28;5036294;28;974;-58